createdAt,value
2019-03-21T00:01:32.922Z,102819.45
2019-03-21T00:04:07.543Z,102818.34
2019-03-21T00:06:36.004Z,102817.81
2019-03-21T00:09:09.864Z,102822.75
2019-03-21T00:12:01.130Z,102816.67
2019-03-21T00:14:35.799Z,102818.78
2019-03-21T00:17:10.295Z,102824.02
2019-03-21T00:22:08.111Z,102825.47
2019-03-21T00:24:36.927Z,102823.16
2019-03-21T00:27:05.361Z,102822.09
2019-03-21T00:29:33.804Z,102820.67
2019-03-21T00:32:02.469Z,102821.11
2019-03-21T00:34:31.039Z,102824.86
2019-03-21T00:36:59.515Z,102816.45
2019-03-21T00:39:32.762Z,102826.56
2019-03-21T00:41:58.222Z,102818.12
2019-03-21T00:44:26.655Z,102815.73
2019-03-21T00:46:55.132Z,102816.62
2019-03-21T00:49:23.578Z,102810.31
2019-03-21T00:51:52.039Z,102808.70
2019-03-21T00:54:20.631Z,102808.20
2019-03-21T00:56:49.079Z,102799.41
2019-03-21T00:59:18.835Z,102798.72
2019-03-21T01:01:47.332Z,102796.89
2019-03-21T01:04:15.891Z,102797.62
2019-03-21T01:06:44.541Z,102799.80
2019-03-21T01:12:42.270Z,102802.16
2019-03-21T01:15:11.371Z,102795.10
2019-03-21T01:17:39.843Z,102794.91
2019-03-21T01:20:14.415Z,102792.74
2019-03-21T01:22:42.399Z,102786.09
2019-03-21T01:25:42.410Z,102793.22
2019-03-21T01:28:10.838Z,102799.52
2019-03-21T01:30:39.295Z,102792.84
2019-03-21T01:33:07.917Z,102790.66
2019-03-21T01:35:37.092Z,102789.44
2019-03-21T01:38:05.647Z,102787.30
2019-03-21T01:40:43.083Z,102776.36
2019-03-21T01:43:11.621Z,102772.94
2019-03-21T01:45:40.080Z,102774.89
2019-03-21T01:48:08.964Z,102771.45
2019-03-21T01:50:41.464Z,102771.30
2019-03-21T01:53:09.935Z,102768.05
2019-03-21T01:55:38.352Z,102759.80
2019-03-21T01:58:06.910Z,102765.19
2019-03-21T02:00:47.246Z,102763.04
2019-03-21T02:03:15.762Z,102761.84
2019-03-21T02:05:44.295Z,102756.27
2019-03-21T02:08:12.727Z,102757.87
2019-03-21T02:10:41.183Z,102749.05
2019-03-21T02:13:09.651Z,102753.93
2019-03-21T02:15:38.073Z,102756.28
2019-03-21T02:18:06.828Z,102746.20
2019-03-21T02:20:35.272Z,102748.22
2019-03-21T02:23:03.715Z,102743.20
2019-03-21T02:25:34.432Z,102736.56
2019-03-21T02:28:02.868Z,102736.34
2019-03-21T02:30:45.627Z,102734.34
2019-03-21T02:33:26.511Z,102737.04
2019-03-21T02:35:54.988Z,102732.73
2019-03-21T02:38:23.556Z,102736.67
2019-03-21T02:40:54.795Z,102739.03
2019-03-21T02:43:23.281Z,102733.08
2019-03-21T02:45:51.785Z,102731.81
2019-03-21T02:48:20.229Z,102729.45
2019-03-21T02:50:48.949Z,102733.39
2019-03-21T02:53:17.518Z,102741.30
2019-03-21T02:55:45.980Z,102739.70
2019-03-21T02:58:14.681Z,102742.03
2019-03-21T03:00:45.108Z,102745.65
2019-03-21T03:03:13.978Z,102749.11
2019-03-21T03:05:42.516Z,102740.63
2019-03-21T03:08:10.961Z,102737.79
2019-03-21T03:10:51.483Z,102739.56
2019-03-21T03:13:19.981Z,102738.30
2019-03-21T03:15:48.500Z,102740.98
2019-03-21T03:18:24.229Z,102739.03
2019-03-21T03:20:52.651Z,102735.62
2019-03-21T03:23:21.134Z,102738.14
2019-03-21T03:25:51.163Z,102737.52
2019-03-21T03:28:31.682Z,102733.19
2019-03-21T03:31:00.265Z,102736.59
2019-03-21T03:33:28.982Z,102737.82
2019-03-21T03:35:57.657Z,102740.69
2019-03-21T03:38:26.191Z,102745.37
2019-03-21T03:41:00.615Z,102743.58
2019-03-21T03:43:29.084Z,102750.98
2019-03-21T03:45:57.602Z,102754.60
2019-03-21T03:48:27.528Z,102754.78
2019-03-21T03:50:56.038Z,102756.55
2019-03-21T03:53:24.594Z,102757.62
2019-03-21T03:55:54.024Z,102761.56
2019-03-21T03:58:30.867Z,102756.00
2019-03-21T04:00:59.498Z,102760.30
2019-03-21T04:03:28.838Z,102757.28
2019-03-21T04:05:57.303Z,102754.92
2019-03-21T04:08:25.844Z,102759.77
2019-03-21T04:10:56.049Z,102753.41
2019-03-21T04:13:24.498Z,102754.64
2019-03-21T04:15:54.054Z,102752.09
2019-03-21T04:18:24.717Z,102758.97
2019-03-21T04:20:59.000Z,102754.64
2019-03-21T04:23:27.706Z,102756.06
2019-03-21T04:26:05.046Z,102754.45
2019-03-21T04:28:33.588Z,102757.33
2019-03-21T04:31:02.082Z,102759.47
2019-03-21T04:33:30.569Z,102761.41
2019-03-21T04:35:59.005Z,102761.41
2019-03-21T04:38:27.525Z,102760.91
2019-03-21T04:40:56.076Z,102761.48
2019-03-21T04:43:24.538Z,102765.09
2019-03-21T04:46:02.884Z,102767.65
2019-03-21T04:48:23.412Z,102774.89
2019-03-21T04:50:51.856Z,102769.66
2019-03-21T04:53:20.309Z,102765.19
2019-03-21T04:55:49.429Z,102765.19
2019-03-21T04:58:17.903Z,102768.40
2019-03-21T05:00:52.024Z,102767.70
2019-03-21T05:03:23.358Z,102766.27
2019-03-21T05:05:51.919Z,102771.30
2019-03-21T05:08:20.408Z,102767.52
2019-03-21T05:10:48.835Z,102772.72
2019-03-21T05:13:17.320Z,102774.16
2019-03-21T05:15:53.295Z,102771.48
2019-03-21T05:18:45.014Z,102771.14
2019-03-21T05:21:19.225Z,102775.64
2019-03-21T05:23:47.680Z,102778.00
2019-03-21T05:26:16.159Z,102782.50
2019-03-21T05:28:44.602Z,102774.53
2019-03-21T05:31:25.575Z,102777.78
2019-03-21T05:33:54.028Z,102777.22
2019-03-21T05:36:22.522Z,102776.36
2019-03-21T05:38:50.985Z,102784.11
2019-03-21T05:41:19.421Z,102787.04
2019-03-21T05:43:56.862Z,102783.28
2019-03-21T05:46:27.007Z,102784.16
2019-03-21T05:48:55.474Z,102782.03
2019-03-21T05:51:23.908Z,102784.01
2019-03-21T05:53:52.365Z,102784.92
2019-03-21T05:56:20.834Z,102778.63
2019-03-21T05:58:50.271Z,102776.86
2019-03-21T06:01:18.905Z,102779.53
2019-03-21T06:03:53.779Z,102788.20
2019-03-21T06:06:40.341Z,102794.17
2019-03-21T06:09:12.377Z,102792.21
2019-03-21T06:11:43.884Z,102796.23
2019-03-21T06:14:12.313Z,102789.02
2019-03-21T06:16:40.797Z,102794.81
2019-03-21T06:19:24.588Z,102799.13
2019-03-21T06:22:08.309Z,102799.66
2019-03-21T06:24:45.718Z,102799.34
2019-03-21T06:27:18.037Z,102795.94
2019-03-21T06:29:46.493Z,102797.39
2019-03-21T06:32:14.972Z,102801.70
2019-03-21T06:34:43.453Z,102799.91
2019-03-21T06:37:11.920Z,102801.54
2019-03-21T06:39:40.393Z,102798.48
2019-03-21T06:42:08.877Z,102788.40
2019-03-21T06:44:37.308Z,102789.84
2019-03-21T06:47:05.818Z,102785.56
2019-03-21T06:49:34.281Z,102791.48
2019-03-21T06:52:02.744Z,102792.58
2019-03-21T06:54:31.214Z,102797.45
2019-03-21T06:57:02.373Z,102791.34
2019-03-21T06:59:29.904Z,102790.48
2019-03-21T07:01:58.382Z,102790.48
2019-03-21T07:04:26.821Z,102800.00
2019-03-21T07:06:55.405Z,102795.34
2019-03-21T07:09:25.333Z,102797.13
2019-03-21T07:11:53.801Z,102798.41
2019-03-21T07:14:22.251Z,102798.98
2019-03-21T07:17:00.010Z,102801.87
2019-03-21T07:21:55.142Z,102799.59
2019-03-21T07:24:23.429Z,102803.17
2019-03-21T07:26:51.903Z,102801.56
2019-03-21T07:29:20.625Z,102804.81
2019-03-21T07:31:49.071Z,102807.89
2019-03-21T07:34:17.551Z,102808.98
2019-03-21T07:36:46.041Z,102808.86
2019-03-21T07:39:14.511Z,102809.04
2019-03-21T07:41:42.951Z,102811.38
2019-03-21T07:44:11.387Z,102809.79
2019-03-21T07:46:39.874Z,102811.66
2019-03-21T07:49:08.337Z,102818.16
2019-03-21T07:51:36.815Z,102807.73
2019-03-21T07:54:05.405Z,102813.71
2019-03-21T07:56:33.873Z,102823.13
2019-03-21T07:59:02.471Z,102828.02
2019-03-21T08:01:30.973Z,102820.45
2019-03-21T08:03:59.397Z,102825.70
2019-03-21T08:06:27.846Z,102831.52
2019-03-21T08:08:56.304Z,102816.70
2019-03-21T08:11:24.812Z,102828.50
2019-03-21T08:13:53.267Z,102828.16
2019-03-21T08:16:21.738Z,102828.17
2019-03-21T08:18:50.203Z,102827.84
2019-03-21T08:21:18.695Z,102830.59
2019-03-21T08:23:47.095Z,102827.35
2019-03-21T08:26:15.582Z,102827.18
2019-03-21T08:28:44.026Z,102829.18
2019-03-21T08:31:15.396Z,102828.45
2019-03-21T08:33:44.401Z,102832.62
2019-03-21T08:36:13.182Z,102833.14
2019-03-21T08:38:41.670Z,102832.23
2019-03-21T08:41:10.298Z,102833.50
2019-03-21T08:43:38.787Z,102835.15
2019-03-21T08:46:07.313Z,102836.95
2019-03-21T08:48:35.800Z,102808.39
2019-03-21T08:51:08.568Z,102837.46
2019-03-21T08:53:34.473Z,102836.41
2019-03-21T08:56:03.007Z,102837.69
2019-03-21T08:58:31.662Z,102840.03
2019-03-21T09:01:00.153Z,102841.99
2019-03-21T09:03:28.605Z,102841.47
2019-03-21T09:05:57.041Z,102838.61
2019-03-21T09:08:25.521Z,102840.27
2019-03-21T09:10:53.967Z,102836.48
2019-03-21T09:13:22.405Z,102830.34
2019-03-21T09:15:50.855Z,102830.34
2019-03-21T09:18:19.283Z,102834.70
2019-03-21T09:20:47.740Z,102836.14
2019-03-21T09:23:16.250Z,102836.34
2019-03-21T09:25:44.688Z,102827.33
2019-03-21T09:28:14.330Z,102831.67
2019-03-21T09:30:42.870Z,102831.67
2019-03-21T09:33:11.347Z,102830.94
2019-03-21T09:35:39.768Z,102832.38
2019-03-21T09:38:08.221Z,102822.66
2019-03-21T09:40:36.693Z,102825.70
2019-03-21T09:43:05.128Z,102830.59
2019-03-21T09:45:33.595Z,102823.38
2019-03-21T09:48:02.040Z,102827.35
2019-03-21T09:50:30.769Z,102831.49
2019-03-21T09:52:59.290Z,102829.52
2019-03-21T09:55:27.740Z,102828.42
2019-03-21T09:57:56.551Z,102839.11
2019-03-21T10:00:30.729Z,102836.94
2019-03-21T10:02:59.216Z,102834.05
2019-03-21T10:05:27.702Z,102837.64
2019-03-21T10:07:56.173Z,102840.34
2019-03-21T10:10:27.692Z,102836.73
2019-03-21T10:12:56.304Z,102841.08
2019-03-21T10:15:24.731Z,102836.55
2019-03-21T10:17:53.326Z,102835.50
2019-03-21T10:20:21.846Z,102833.66
2019-03-21T10:22:50.296Z,102830.05
2019-03-21T10:25:18.758Z,102838.89
2019-03-21T10:27:47.202Z,102843.70
2019-03-21T10:30:36.787Z,102839.49
2019-03-21T10:33:11.199Z,102845.62
2019-03-21T10:35:38.917Z,102841.72
2019-03-21T10:38:07.888Z,102838.76
2019-03-21T10:40:37.270Z,102841.81
2019-03-21T10:43:06.285Z,102838.39
2019-03-21T10:45:34.823Z,102832.89
2019-03-21T10:48:03.824Z,102833.50
2019-03-21T10:50:42.107Z,102831.36
2019-03-21T10:53:10.888Z,102833.62
2019-03-21T10:55:39.655Z,102837.06
2019-03-21T10:58:08.786Z,102828.70
2019-03-21T11:00:37.294Z,102820.45
2019-03-21T11:03:05.968Z,102820.38
2019-03-21T11:05:34.795Z,102815.34
2019-03-21T11:08:03.418Z,102820.16
2019-03-21T11:10:31.874Z,102816.69
2019-03-21T11:13:00.422Z,102816.55
2019-03-21T11:15:29.030Z,102820.21
2019-03-21T11:17:57.609Z,102817.79
2019-03-21T11:20:33.315Z,102807.53
2019-03-21T11:23:02.027Z,102808.80
2019-03-21T11:25:30.935Z,102806.73
2019-03-21T11:27:59.387Z,102804.66
2019-03-21T11:30:41.229Z,102802.80
2019-03-21T11:33:09.774Z,102792.42
2019-03-21T11:35:38.597Z,102796.29
2019-03-21T11:38:07.722Z,102795.17
2019-03-21T11:40:37.443Z,102792.20
2019-03-21T11:43:07.247Z,102795.06
2019-03-21T11:45:35.801Z,102794.98
2019-03-21T11:48:04.964Z,102795.38
2019-03-21T11:50:33.412Z,102791.17
2019-03-21T11:53:01.938Z,102796.65
2019-03-21T11:55:30.380Z,102790.38
2019-03-21T11:57:58.836Z,102783.94
2019-03-21T12:00:27.389Z,102776.38
2019-03-21T12:02:55.879Z,102781.05
2019-03-21T12:05:24.360Z,102776.13
2019-03-21T12:07:52.801Z,102780.88
2019-03-21T12:10:21.258Z,102773.80
2019-03-21T12:12:49.722Z,102745.40
2019-03-21T12:15:18.222Z,102774.41
2019-03-21T12:17:46.728Z,102767.80
2019-03-21T12:20:32.588Z,102759.67
2019-03-21T12:23:00.995Z,102759.38
2019-03-21T12:25:29.606Z,102746.11
2019-03-21T12:27:58.293Z,102752.99
2019-03-21T12:30:34.704Z,102746.25
2019-03-21T12:33:03.143Z,102753.14
2019-03-21T12:35:31.603Z,102747.80
2019-03-21T12:38:00.030Z,102758.03
2019-03-21T12:40:28.781Z,102753.64
2019-03-21T12:42:57.256Z,102746.76
2019-03-21T12:45:25.735Z,102753.06
2019-03-21T12:47:54.228Z,102746.13
2019-03-21T12:50:22.684Z,102745.25
2019-03-21T12:52:51.123Z,102745.09
2019-03-21T12:55:19.978Z,102730.80
2019-03-21T12:57:48.491Z,102737.88
2019-03-21T13:00:31.702Z,102743.09
2019-03-21T13:03:00.139Z,102737.03
2019-03-21T13:05:32.058Z,102734.46
2019-03-21T13:08:00.515Z,102733.27
2019-03-21T13:10:28.980Z,102737.14
2019-03-21T13:12:58.082Z,102734.75
2019-03-21T13:15:30.062Z,102731.55
2019-03-21T13:17:56.786Z,102723.75
2019-03-21T13:20:25.224Z,102722.81
2019-03-21T13:22:54.040Z,102715.02
2019-03-21T13:25:22.638Z,102709.88
2019-03-21T13:27:51.261Z,102710.63
2019-03-21T13:30:19.896Z,102709.52
2019-03-21T13:32:48.291Z,102707.48
2019-03-21T13:35:16.766Z,102715.96
2019-03-21T13:37:45.215Z,102700.55
2019-03-21T13:40:13.733Z,102693.38
2019-03-21T13:42:42.188Z,102702.62
2019-03-21T13:45:11.210Z,102699.65
2019-03-21T13:47:39.989Z,102699.22
2019-03-21T13:50:08.887Z,102701.56
2019-03-21T13:52:37.402Z,102696.32
2019-03-21T13:55:10.447Z,102694.47
2019-03-21T13:57:38.961Z,102662.91
2019-03-21T14:00:10.720Z,102684.75
2019-03-21T14:02:39.233Z,102676.30
2019-03-21T14:05:08.569Z,102675.70
2019-03-21T14:07:36.990Z,102669.13
2019-03-21T14:10:08.163Z,102668.50
2019-03-21T14:12:36.627Z,102667.92
2019-03-21T14:15:07.809Z,102664.20
2019-03-21T14:17:36.405Z,102659.45
2019-03-21T14:20:07.287Z,102653.69
2019-03-21T14:22:35.759Z,102653.79
2019-03-21T14:25:06.061Z,102649.24
2019-03-21T14:27:34.511Z,102653.45
2019-03-21T14:30:03.131Z,102648.45
2019-03-21T14:32:31.638Z,102643.64
2019-03-21T14:35:00.410Z,102639.20
2019-03-21T14:37:28.823Z,102641.25
2019-03-21T14:39:57.280Z,102640.05
2019-03-21T14:42:25.807Z,102637.27
2019-03-21T14:44:55.296Z,102637.30
2019-03-21T14:47:35.836Z,102632.33
2019-03-21T14:49:55.517Z,102630.78
2019-03-21T14:52:24.044Z,102633.27
2019-03-21T14:54:52.490Z,102630.36
2019-03-21T14:57:20.949Z,102629.66
2019-03-21T14:59:49.415Z,102623.16
2019-03-21T15:02:17.870Z,102622.31
2019-03-21T15:04:46.320Z,102623.64
2019-03-21T15:07:14.811Z,102632.18
2019-03-21T15:09:43.300Z,102623.80
2019-03-21T15:12:11.778Z,102627.24
2019-03-21T15:14:40.305Z,102637.30
2019-03-21T15:17:08.747Z,102638.29
2019-03-21T15:19:39.598Z,102643.49
2019-03-21T15:22:08.121Z,102643.49
2019-03-21T15:24:36.854Z,102645.12
2019-03-21T15:27:05.289Z,102641.83
2019-03-21T15:29:35.449Z,102641.10
2019-03-21T15:32:05.050Z,102651.63
2019-03-21T15:34:33.592Z,102619.97
2019-03-21T15:37:02.066Z,102641.45
2019-03-21T15:39:30.509Z,102645.38
2019-03-21T15:41:58.980Z,102644.73
2019-03-21T15:44:27.513Z,102644.73
2019-03-21T15:46:55.945Z,102643.47
2019-03-21T15:49:24.503Z,102647.39
2019-03-21T15:51:52.959Z,102650.11
2019-03-21T15:54:21.410Z,102649.95
2019-03-21T15:56:49.938Z,102641.45
2019-03-21T15:59:18.340Z,102648.69
2019-03-21T16:01:46.855Z,102645.89
2019-03-21T16:04:15.287Z,102655.23
2019-03-21T16:06:43.731Z,102652.41
2019-03-21T16:09:12.194Z,102643.41
2019-03-21T16:11:40.923Z,102646.00
2019-03-21T16:14:09.393Z,102656.56
2019-03-21T16:16:38.468Z,102650.06
2019-03-21T16:19:07.109Z,102654.13
2019-03-21T16:21:35.535Z,102647.08
2019-03-21T16:24:05.305Z,102645.34
2019-03-21T16:26:36.645Z,102646.81
2019-03-21T16:29:04.797Z,102645.74
2019-03-21T16:31:33.279Z,102642.19
2019-03-21T16:34:01.721Z,102647.86
2019-03-21T16:36:30.533Z,102648.30
2019-03-21T16:38:59.019Z,102643.70
2019-03-21T16:41:27.462Z,102636.57
2019-03-21T16:43:55.954Z,102634.63
2019-03-21T16:46:24.416Z,102635.94
2019-03-21T16:48:52.962Z,102636.17
2019-03-21T16:51:21.420Z,102616.75
2019-03-21T16:53:50.263Z,102644.20
2019-03-21T16:56:18.735Z,102640.30
2019-03-21T16:58:47.161Z,102649.42
2019-03-21T17:01:15.651Z,102657.61
2019-03-21T17:03:44.083Z,102647.73
2019-03-21T17:06:12.534Z,102648.81
2019-03-21T17:08:40.997Z,102647.06
2019-03-21T17:11:09.486Z,102650.16
2019-03-21T17:13:38.006Z,102649.63
2019-03-21T17:16:06.537Z,102621.34
2019-03-21T17:18:34.991Z,102639.02
2019-03-21T17:21:03.433Z,102643.03
2019-03-21T17:23:32.270Z,102639.97
2019-03-21T17:26:00.741Z,102642.36
2019-03-21T17:28:29.188Z,102644.17
2019-03-21T17:30:57.643Z,102642.56
2019-03-21T17:33:26.160Z,102647.28
2019-03-21T17:35:54.625Z,102646.77
2019-03-21T17:38:23.047Z,102650.94
2019-03-21T17:40:51.636Z,102657.13
2019-03-21T17:43:20.216Z,102656.24
2019-03-21T17:45:48.724Z,102656.96
2019-03-21T17:48:17.175Z,102651.19
2019-03-21T17:50:45.638Z,102650.31
2019-03-21T17:53:14.147Z,102652.68
2019-03-21T17:55:43.025Z,102642.58
2019-03-21T17:58:11.545Z,102648.36
2019-03-21T18:00:40.035Z,102651.43
2019-03-21T18:03:08.741Z,102646.53
2019-03-21T18:05:37.155Z,102652.12
2019-03-21T18:08:05.745Z,102650.52
2019-03-21T18:10:34.729Z,102649.61
2019-03-21T18:13:03.951Z,102652.33
2019-03-21T18:15:32.858Z,102652.87
2019-03-21T18:18:01.567Z,102663.50
2019-03-21T18:20:30.067Z,102660.81
2019-03-21T18:22:58.543Z,102666.39
2019-03-21T18:25:27.040Z,102663.70
2019-03-21T18:27:55.489Z,102664.05
2019-03-21T18:30:23.992Z,102669.46
2019-03-21T18:32:52.453Z,102677.95
2019-03-21T18:35:20.943Z,102670.90
2019-03-21T18:37:49.384Z,102675.95
2019-03-21T18:40:17.899Z,102683.36
2019-03-21T18:42:46.456Z,102680.83
2019-03-21T18:45:15.980Z,102679.92
2019-03-21T18:47:44.483Z,102677.00
2019-03-21T18:50:15.945Z,102688.37
2019-03-21T18:59:42.149Z,102691.05
2019-03-21T19:02:10.588Z,102698.23
2019-03-21T19:04:39.046Z,102698.95
2019-03-21T19:07:07.986Z,102696.78
2019-03-21T19:09:36.470Z,102699.30
2019-03-21T19:12:05.045Z,102703.95
2019-03-21T19:14:33.552Z,102706.12
2019-03-21T19:17:02.025Z,102709.34
2019-03-21T19:19:30.461Z,102712.59
2019-03-21T19:21:59.040Z,102708.98
2019-03-21T19:24:27.528Z,102712.03
2019-03-21T19:26:56.074Z,102713.28
2019-03-21T19:29:24.488Z,102721.58
2019-03-21T19:31:52.924Z,102718.49
2019-03-21T19:34:21.388Z,102709.66
2019-03-21T19:36:49.860Z,102720.48
2019-03-21T19:39:18.401Z,102717.57
2019-03-21T19:41:47.024Z,102717.91
2019-03-21T19:44:15.627Z,102717.02
2019-03-21T19:46:44.121Z,102721.66
2019-03-21T19:49:12.619Z,102715.66
2019-03-21T19:51:41.124Z,102717.86
2019-03-21T19:54:10.407Z,102721.30
2019-03-21T19:56:38.858Z,102716.04
2019-03-21T19:59:07.333Z,102724.29
2019-03-21T20:01:35.865Z,102722.66
2019-03-21T20:04:04.338Z,102707.70
2019-03-21T20:06:33.526Z,102713.60
2019-03-21T20:09:01.942Z,102707.85
2019-03-21T20:11:30.563Z,102707.85
2019-03-21T20:13:59.041Z,102703.68
2019-03-21T20:16:27.670Z,102704.06
2019-03-21T20:18:56.155Z,102713.59
2019-03-21T20:21:24.592Z,102711.58
2019-03-21T20:23:52.891Z,102706.70
2019-03-21T20:26:21.376Z,102706.52
2019-03-21T20:28:49.831Z,102713.17
2019-03-21T20:31:18.280Z,102721.10
2019-03-21T20:33:46.828Z,102714.22
2019-03-21T20:36:15.270Z,102713.69
2019-03-21T20:38:43.747Z,102711.84
2019-03-21T20:41:12.195Z,102712.53
2019-03-21T20:43:40.668Z,102710.17
2019-03-21T20:46:09.238Z,102705.87
2019-03-21T20:48:36.553Z,102708.20
2019-03-21T20:51:07.674Z,102710.54
2019-03-21T20:53:36.155Z,102707.45
2019-03-21T20:56:04.963Z,102704.41
2019-03-21T20:58:33.462Z,102704.18
2019-03-21T21:01:01.943Z,102694.65
2019-03-21T21:03:30.383Z,102694.63
2019-03-21T21:05:58.820Z,102699.45
2019-03-21T21:08:27.451Z,102689.53
2019-03-21T21:10:55.894Z,102689.16
2019-03-21T21:13:24.431Z,102691.09
2019-03-21T21:15:53.012Z,102700.62
2019-03-21T21:18:21.529Z,102698.45
2019-03-21T21:20:49.943Z,102702.58
2019-03-21T21:23:18.412Z,102691.19
2019-03-21T21:25:46.867Z,102709.77
2019-03-21T21:28:15.346Z,102714.42
2019-03-21T21:30:44.257Z,102717.98
2019-03-21T21:33:12.724Z,102719.06
2019-03-21T21:35:41.184Z,102717.45
2019-03-21T21:38:09.676Z,102723.56
2019-03-21T21:40:40.209Z,102726.41
2019-03-21T21:43:09.162Z,102725.81
2019-03-21T21:45:37.785Z,102731.41
2019-03-21T21:48:06.309Z,102733.71
2019-03-21T21:50:34.771Z,102728.14
2019-03-21T21:53:03.240Z,102734.06
2019-03-21T21:55:31.745Z,102731.30
2019-03-21T21:58:00.241Z,102732.55
2019-03-21T22:00:28.754Z,102734.16
2019-03-21T22:02:57.297Z,102739.58
2019-03-21T22:05:25.784Z,102741.68
2019-03-21T22:07:54.303Z,102743.09
2019-03-21T22:10:22.755Z,102744.17
2019-03-21T22:12:51.398Z,102744.17
2019-03-21T22:15:19.880Z,102744.30
2019-03-21T22:17:48.436Z,102738.16
2019-03-21T22:20:17.258Z,102738.13
2019-03-21T22:22:46.055Z,102737.75
2019-03-21T22:25:14.833Z,102736.08
2019-03-21T22:27:43.427Z,102744.84
2019-03-21T22:30:14.884Z,102741.58
2019-03-21T22:32:43.421Z,102740.54
2019-03-21T22:35:12.143Z,102744.31
2019-03-21T22:37:41.966Z,102742.83
2019-03-21T22:40:17.741Z,102748.59
2019-03-21T22:42:46.186Z,102741.20
2019-03-21T22:45:16.294Z,102742.95
2019-03-21T22:47:44.899Z,102742.88
2019-03-21T22:50:15.733Z,102743.42
2019-03-21T22:52:44.644Z,102739.64
2019-03-21T22:55:13.180Z,102740.86
2019-03-21T22:57:41.822Z,102731.64
2019-03-21T23:00:13.313Z,102742.66
2019-03-21T23:02:41.843Z,102719.64
2019-03-21T23:05:10.671Z,102723.75
2019-03-21T23:07:39.471Z,102725.36
2019-03-21T23:10:09.619Z,102725.55
2019-03-21T23:12:38.132Z,102718.88
2019-03-21T23:15:09.409Z,102705.19
2019-03-21T23:17:38.634Z,102709.00
2019-03-21T23:20:09.613Z,102704.31
2019-03-21T23:22:38.091Z,102700.16
2019-03-21T23:25:08.097Z,102703.21
2019-03-21T23:27:36.522Z,102701.38
2019-03-21T23:30:16.329Z,102698.83
2019-03-21T23:32:45.149Z,102700.81
2019-03-21T23:35:14.071Z,102706.38
2019-03-21T23:37:42.523Z,102707.63
2019-03-21T23:40:12.488Z,102624.80
2019-03-21T23:42:40.933Z,102709.66
2019-03-21T23:45:11.549Z,102711.56
2019-03-21T23:47:40.000Z,102705.62
2019-03-21T23:50:10.836Z,102707.25
2019-03-21T23:52:39.542Z,102708.28
2019-03-21T23:55:09.182Z,102710.07
2019-03-21T23:57:37.653Z,102704.63
